createdAt,value
2022-12-27T00:00:15.741Z,91.74
2022-12-27T00:02:45.387Z,91.99
2022-12-27T00:05:15.822Z,92.02
2022-12-27T00:07:46.022Z,92.33
2022-12-27T00:10:15.231Z,92.50
2022-12-27T00:12:44.835Z,92.62
2022-12-27T00:15:14.037Z,92.79
2022-12-27T00:17:43.357Z,92.82
2022-12-27T00:20:13.027Z,92.74
2022-12-27T00:22:42.917Z,92.69
2022-12-27T00:25:12.853Z,92.76
2022-12-27T00:27:42.383Z,92.80
2022-12-27T00:30:13.203Z,93.16
2022-12-27T00:32:42.950Z,93.12
2022-12-27T00:35:12.207Z,93.06
2022-12-27T00:37:41.413Z,92.97
2022-12-27T00:40:12.052Z,93.23
2022-12-27T00:42:41.248Z,93.08
2022-12-27T00:45:11.850Z,92.66
2022-12-27T00:47:41.079Z,92.62
2022-12-27T00:50:10.810Z,92.40
2022-12-27T00:52:40.061Z,92.36
2022-12-27T00:55:11.035Z,92.18
2022-12-27T00:57:40.207Z,92.15
2022-12-27T01:00:11.598Z,92.45
2022-12-27T01:02:41.272Z,92.35
2022-12-27T01:05:11.087Z,92.36
2022-12-27T01:07:41.514Z,92.38
2022-12-27T01:10:11.050Z,92.36
2022-12-27T01:12:40.255Z,92.11
2022-12-27T01:15:10.868Z,92.03
2022-12-27T01:17:40.149Z,92.21
2022-12-27T01:20:10.164Z,92.03
2022-12-27T01:22:39.407Z,92.22
2022-12-27T01:25:09.626Z,92.28
2022-12-27T01:27:39.453Z,92.03
2022-12-27T01:30:10.336Z,91.68
2022-12-27T01:32:39.740Z,91.49
2022-12-27T01:35:09.874Z,91.58
2022-12-27T01:37:39.305Z,91.56
2022-12-27T01:40:09.799Z,91.67
2022-12-27T01:42:55.545Z,89.51
2022-12-27T01:45:30.225Z,90.39
2022-12-27T01:48:20.203Z,91.55
2022-12-27T01:50:52.589Z,92.05
2022-12-27T01:53:24.393Z,92.48
2022-12-27T01:56:02.929Z,92.55
2022-12-27T01:58:43.719Z,92.71
2022-12-27T02:01:16.219Z,93.11
2022-12-27T02:03:58.070Z,93.69
2022-12-27T02:06:28.855Z,94.05
2022-12-27T02:09:24.630Z,93.98
2022-12-27T02:11:56.924Z,94.19
2022-12-27T02:14:32.135Z,94.01
2022-12-27T02:17:04.466Z,94.38
2022-12-27T02:19:42.583Z,94.41
2022-12-27T02:23:01.161Z,94.63
2022-12-27T02:25:40.025Z,94.65
2022-12-27T02:28:15.369Z,94.66
2022-12-27T02:30:46.423Z,94.19
2022-12-27T02:33:21.820Z,94.00
2022-12-27T02:35:57.331Z,93.87
2022-12-27T02:38:32.435Z,94.10
2022-12-27T02:41:21.637Z,93.68
2022-12-27T02:44:08.743Z,93.11
2022-12-27T02:46:55.916Z,93.10
2022-12-27T02:49:54.940Z,92.50
2022-12-27T02:52:57.219Z,92.87
2022-12-27T02:56:11.371Z,92.98
2022-12-27T02:59:00.174Z,93.08
2022-12-27T03:01:59.370Z,93.23
2022-12-27T03:05:02.269Z,93.37
2022-12-27T03:07:58.306Z,92.86
2022-12-27T03:11:05.973Z,92.81
2022-12-27T03:14:03.054Z,92.24
2022-12-27T03:16:52.356Z,91.79
2022-12-27T03:19:42.460Z,91.35
2022-12-27T03:22:30.940Z,91.37
2022-12-27T03:25:18.309Z,90.99
2022-12-27T03:27:51.052Z,91.08
2022-12-27T03:30:38.235Z,91.34
2022-12-27T03:33:14.085Z,91.72
2022-12-27T03:36:15.056Z,91.77
2022-12-27T03:38:50.099Z,92.08
2022-12-27T03:41:40.245Z,92.29
2022-12-27T03:44:12.523Z,92.54
2022-12-27T03:46:43.787Z,92.97
2022-12-27T03:49:33.893Z,93.09
2022-12-27T03:52:26.326Z,93.33
2022-12-27T03:54:55.938Z,93.45
2022-12-27T03:57:26.883Z,93.70
2022-12-27T03:59:56.411Z,93.84
2022-12-27T04:02:27.025Z,93.93
2022-12-27T04:04:56.448Z,93.86
2022-12-27T04:07:26.288Z,93.66
2022-12-27T04:10:13.154Z,93.82
2022-12-27T04:13:00.418Z,93.82
2022-12-27T04:15:47.748Z,93.48
2022-12-27T04:18:35.660Z,93.41
2022-12-27T04:21:22.859Z,92.93
2022-12-27T04:24:10.640Z,92.93
2022-12-27T04:26:57.726Z,93.01
2022-12-27T04:29:45.011Z,92.35
2022-12-27T04:32:32.430Z,91.77
2022-12-27T04:35:01.857Z,91.51
2022-12-27T04:37:31.429Z,91.75
2022-12-27T04:40:18.903Z,91.69
2022-12-27T04:43:05.972Z,91.89
2022-12-27T04:45:39.818Z,92.27
2022-12-27T04:48:33.741Z,92.54
2022-12-27T04:51:20.759Z,92.83
2022-12-27T04:54:08.191Z,93.28
2022-12-27T04:56:38.359Z,93.82
2022-12-27T04:59:25.841Z,93.87
2022-12-27T05:02:04.744Z,93.52
2022-12-27T05:04:36.297Z,93.58
2022-12-27T05:07:26.119Z,93.61
2022-12-27T05:10:13.628Z,93.78
2022-12-27T05:13:01.370Z,94.05
2022-12-27T05:15:31.680Z,94.39
2022-12-27T05:18:00.969Z,94.80
2022-12-27T05:20:30.178Z,95.05
2022-12-27T05:23:17.150Z,95.17
2022-12-27T05:25:47.716Z,95.43
2022-12-27T05:28:16.949Z,95.65
2022-12-27T05:30:46.176Z,95.50
2022-12-27T05:33:15.435Z,95.69
2022-12-27T05:35:46.023Z,95.42
2022-12-27T05:38:15.236Z,95.36
2022-12-27T05:40:45.095Z,95.61
2022-12-27T05:43:14.356Z,95.76
2022-12-27T05:45:43.829Z,95.52
2022-12-27T05:48:13.407Z,95.20
2022-12-27T05:50:43.125Z,94.91
2022-12-27T05:53:13.952Z,94.54
2022-12-27T05:55:43.173Z,94.14
2022-12-27T05:58:12.397Z,94.02
2022-12-27T06:00:41.795Z,94.20
2022-12-27T06:03:11.203Z,94.35
2022-12-27T06:05:40.840Z,94.33
2022-12-27T06:08:10.675Z,94.52
2022-12-27T06:10:40.566Z,94.40
2022-12-27T06:13:09.855Z,94.16
2022-12-27T06:15:39.244Z,94.19
2022-12-27T06:18:08.501Z,94.12
2022-12-27T06:20:37.719Z,94.23
2022-12-27T06:23:07.303Z,94.29
2022-12-27T06:25:41.109Z,94.23
2022-12-27T06:28:10.480Z,94.32
2022-12-27T06:30:39.673Z,94.48
2022-12-27T06:33:09.215Z,94.72
2022-12-27T06:35:38.405Z,94.72
2022-12-27T06:38:07.645Z,94.41
2022-12-27T06:40:36.836Z,94.52
2022-12-27T06:43:06.527Z,94.84
2022-12-27T06:45:35.805Z,94.87
2022-12-27T06:48:05.565Z,94.89
2022-12-27T06:50:34.778Z,94.70
2022-12-27T06:53:04.005Z,94.89
2022-12-27T06:55:33.198Z,94.76
2022-12-27T06:58:02.743Z,94.54
2022-12-27T07:00:31.942Z,94.61
2022-12-27T07:03:01.629Z,94.88
2022-12-27T07:05:30.917Z,94.99
2022-12-27T07:08:00.998Z,95.15
2022-12-27T07:10:30.437Z,95.31
2022-12-27T07:12:59.849Z,95.40
2022-12-27T07:15:29.671Z,95.56
2022-12-27T07:17:58.919Z,95.63
2022-12-27T07:20:28.157Z,95.85
2022-12-27T07:22:59.297Z,96.04
2022-12-27T07:25:28.524Z,96.16
2022-12-27T07:27:58.104Z,96.04
2022-12-27T07:30:29.045Z,96.26
2022-12-27T07:32:58.561Z,96.44
2022-12-27T07:35:27.787Z,96.61
2022-12-27T07:37:58.079Z,96.75
2022-12-27T07:40:27.294Z,96.84
2022-12-27T07:42:56.772Z,96.94
2022-12-27T07:45:25.997Z,97.04
2022-12-27T07:47:55.353Z,97.08
2022-12-27T07:50:24.673Z,97.07
2022-12-27T07:52:54.046Z,96.98
2022-12-27T07:55:23.301Z,96.92
2022-12-27T07:57:52.550Z,96.94
2022-12-27T08:00:21.860Z,96.99
2022-12-27T08:02:51.175Z,97.07
2022-12-27T08:05:25.865Z,97.10
2022-12-27T08:07:51.911Z,97.23
2022-12-27T08:10:21.163Z,97.31
2022-12-27T08:12:51.080Z,97.29
2022-12-27T08:15:21.301Z,97.33
2022-12-27T08:17:50.690Z,97.42
2022-12-27T08:20:20.051Z,97.50
2022-12-27T08:22:49.515Z,97.47
2022-12-27T08:25:18.895Z,97.29
2022-12-27T08:27:48.242Z,97.28
2022-12-27T08:30:17.580Z,97.33
2022-12-27T08:32:47.066Z,97.12
2022-12-27T08:35:51.073Z,96.91
2022-12-27T08:37:47.518Z,96.86
2022-12-27T08:40:16.809Z,96.87
2022-12-27T08:42:46.436Z,96.68
2022-12-27T08:45:16.184Z,96.59
2022-12-27T08:47:45.446Z,96.27
2022-12-27T08:50:14.715Z,96.15
2022-12-27T08:52:44.300Z,95.96
2022-12-27T08:55:14.019Z,96.06
2022-12-27T08:57:43.598Z,95.80
2022-12-27T09:00:13.951Z,95.75
2022-12-27T09:02:43.537Z,95.59
2022-12-27T09:05:12.939Z,95.34
2022-12-27T09:07:42.439Z,95.31
2022-12-27T09:10:12.059Z,95.13
2022-12-27T09:12:41.665Z,94.93
2022-12-27T09:15:12.401Z,94.42
2022-12-27T09:17:42.435Z,94.65
2022-12-27T09:20:12.512Z,94.42
2022-12-27T09:22:42.096Z,93.83
2022-12-27T09:25:11.570Z,93.68
2022-12-27T09:27:41.078Z,93.61
2022-12-27T09:30:11.016Z,93.22
2022-12-27T09:32:40.282Z,93.04
2022-12-27T09:35:09.794Z,92.85
2022-12-27T09:37:39.202Z,93.05
2022-12-27T09:40:10.409Z,92.31
2022-12-27T09:43:01.947Z,92.75
2022-12-27T09:45:31.110Z,92.41
2022-12-27T09:48:02.378Z,91.93
2022-12-27T09:50:36.891Z,91.65
2022-12-27T09:53:17.824Z,91.17
2022-12-27T09:55:52.053Z,90.09
2022-12-27T09:58:39.735Z,90.27
2022-12-27T10:01:28.494Z,90.16
2022-12-27T10:03:58.500Z,89.71
2022-12-27T10:06:52.079Z,88.74
2022-12-27T10:09:52.014Z,88.76
2022-12-27T10:12:29.812Z,88.92
2022-12-27T10:15:01.622Z,89.51
2022-12-27T10:17:53.129Z,88.44
2022-12-27T10:20:38.199Z,83.52
2022-12-27T10:23:12.904Z,80.05
2022-12-27T10:25:42.693Z,79.00
2022-12-27T10:28:22.956Z,76.17
2022-12-27T10:30:53.057Z,76.43
2022-12-27T10:33:25.894Z,79.98
2022-12-27T10:35:55.187Z,82.65
2022-12-27T10:38:25.212Z,84.65
2022-12-27T10:41:09.631Z,85.50
2022-12-27T10:43:40.665Z,87.30
2022-12-27T10:46:16.874Z,87.74
2022-12-27T10:49:20.652Z,87.79
2022-12-27T10:51:37.686Z,88.26
2022-12-27T10:54:12.749Z,88.27
2022-12-27T10:56:44.344Z,88.23
2022-12-27T10:59:19.258Z,88.56
2022-12-27T11:01:51.794Z,88.99
2022-12-27T11:04:21.824Z,88.56
2022-12-27T11:06:53.443Z,87.92
2022-12-27T11:09:50.867Z,88.30
2022-12-27T11:12:24.925Z,88.44
2022-12-27T11:15:06.366Z,88.06
2022-12-27T11:17:41.358Z,88.57
2022-12-27T11:20:19.766Z,88.37
2022-12-27T11:22:52.324Z,88.84
2022-12-27T11:25:20.965Z,88.90
2022-12-27T11:27:52.513Z,88.57
2022-12-27T11:30:27.838Z,88.85
2022-12-27T11:33:05.821Z,88.66
2022-12-27T11:35:37.514Z,89.18
2022-12-27T11:38:06.764Z,89.18
2022-12-27T11:40:36.671Z,89.22
2022-12-27T11:43:11.853Z,89.43
2022-12-27T11:45:49.738Z,89.49
2022-12-27T11:48:26.838Z,89.01
2022-12-27T11:51:20.537Z,88.39
2022-12-27T11:54:20.337Z,87.58
2022-12-27T11:56:51.854Z,88.13
2022-12-27T11:59:39.240Z,87.99
2022-12-27T12:02:30.261Z,88.82
2022-12-27T12:05:25.730Z,88.13
2022-12-27T12:08:04.202Z,88.29
2022-12-27T12:10:54.892Z,88.30
2022-12-27T12:13:49.110Z,87.68
2022-12-27T12:16:33.198Z,87.73
2022-12-27T12:19:11.759Z,87.77
2022-12-27T12:21:50.026Z,87.15
2022-12-27T12:24:35.413Z,86.75
2022-12-27T12:27:13.486Z,86.36
2022-12-27T12:30:23.836Z,86.33
2022-12-27T12:33:27.912Z,86.54
2022-12-27T12:36:00.386Z,86.18
2022-12-27T12:38:32.960Z,85.87
2022-12-27T12:41:34.657Z,86.36
2022-12-27T12:44:27.992Z,86.30
2022-12-27T12:47:03.440Z,86.77
2022-12-27T12:49:41.388Z,86.56
2022-12-27T12:52:31.310Z,86.58
2022-12-27T12:55:24.682Z,85.98
2022-12-27T12:58:00.142Z,86.58
2022-12-27T13:00:47.670Z,86.47
2022-12-27T13:03:41.924Z,86.31
2022-12-27T13:06:14.321Z,85.76
2022-12-27T13:08:49.977Z,85.98
2022-12-27T13:11:37.559Z,85.65
2022-12-27T13:14:41.730Z,85.97
2022-12-27T13:17:29.046Z,85.71
2022-12-27T13:20:11.036Z,85.82
2022-12-27T13:23:10.383Z,85.50
2022-12-27T13:25:52.153Z,85.88
2022-12-27T13:28:30.123Z,86.41
2022-12-27T13:31:08.376Z,85.39
2022-12-27T13:33:40.845Z,85.79
2022-12-27T13:36:41.800Z,85.80
2022-12-27T13:39:29.549Z,85.59
2022-12-27T13:42:04.879Z,85.87
2022-12-27T13:44:49.588Z,86.01
2022-12-27T13:47:55.226Z,85.73
2022-12-27T13:50:42.804Z,86.42
2022-12-27T13:53:31.855Z,85.59
2022-12-27T13:56:27.184Z,86.09
2022-12-27T13:58:56.219Z,86.49
2022-12-27T14:01:30.937Z,86.41
2022-12-27T14:04:19.906Z,86.55
2022-12-27T14:06:52.772Z,86.53
2022-12-27T14:09:31.044Z,86.94
2022-12-27T14:12:06.378Z,87.33
2022-12-27T14:14:38.871Z,87.54
2022-12-27T14:17:11.433Z,87.31
2022-12-27T14:19:41.683Z,86.44
2022-12-27T14:22:19.596Z,86.15
2022-12-27T14:25:03.919Z,85.86
2022-12-27T14:27:42.402Z,86.58
2022-12-27T14:30:23.840Z,86.71
2022-12-27T14:33:14.020Z,87.57
2022-12-27T14:36:12.422Z,87.22
2022-12-27T14:38:45.181Z,87.15
2022-12-27T14:41:39.381Z,87.49
2022-12-27T14:44:35.577Z,87.58
2022-12-27T14:47:13.866Z,87.66
2022-12-27T14:49:48.900Z,87.43
2022-12-27T14:52:36.354Z,87.32
2022-12-27T14:55:28.607Z,87.12
2022-12-27T14:58:22.177Z,87.15
2022-12-27T15:01:00.849Z,87.38
2022-12-27T15:03:50.029Z,87.40
2022-12-27T15:06:22.560Z,87.38
2022-12-27T15:09:07.347Z,87.50
2022-12-27T15:11:56.723Z,87.30
2022-12-27T15:18:13.417Z,88.05
2022-12-27T15:24:44.977Z,88.17
2022-12-27T15:27:43.393Z,88.29
2022-12-27T15:34:01.308Z,88.20
2022-12-27T15:36:42.040Z,87.92
2022-12-27T15:39:37.087Z,87.85
2022-12-27T15:42:29.199Z,87.56
2022-12-27T15:45:00.792Z,87.36
2022-12-27T15:47:57.034Z,86.95
2022-12-27T15:50:51.702Z,86.83
2022-12-27T15:53:29.651Z,87.23
2022-12-27T15:56:14.432Z,86.82
2022-12-27T15:58:44.266Z,86.95
2022-12-27T16:01:25.665Z,86.88
2022-12-27T16:03:52.068Z,86.69
2022-12-27T16:06:45.600Z,86.70
2022-12-27T16:09:29.941Z,86.75
2022-12-27T16:12:06.009Z,86.45
2022-12-27T16:14:37.893Z,86.20
2022-12-27T16:17:29.912Z,86.37
2022-12-27T16:20:05.650Z,86.51
2022-12-27T16:22:38.149Z,86.49
2022-12-27T16:25:30.305Z,86.44
2022-12-27T16:27:59.780Z,86.23
2022-12-27T16:30:39.330Z,85.64
2022-12-27T16:33:17.681Z,86.08
2022-12-27T16:35:47.094Z,86.01
2022-12-27T16:38:19.710Z,85.75
2022-12-27T16:40:50.428Z,85.61
2022-12-27T16:43:25.041Z,85.76
2022-12-27T16:46:01.070Z,85.88
2022-12-27T16:48:55.396Z,85.29
2022-12-27T16:52:01.391Z,85.32
2022-12-27T16:54:49.357Z,85.50
2022-12-27T16:57:30.955Z,85.10
2022-12-27T17:00:12.450Z,84.84
2022-12-27T17:02:46.769Z,85.43
2022-12-27T17:05:19.329Z,85.55
2022-12-27T17:07:58.220Z,85.22
2022-12-27T17:10:35.839Z,85.22
2022-12-27T17:13:14.164Z,84.99
2022-12-27T17:15:58.872Z,85.26
2022-12-27T17:18:33.510Z,85.16
2022-12-27T17:21:08.016Z,85.33
2022-12-27T17:23:45.228Z,85.08
2022-12-27T17:26:23.326Z,85.02
2022-12-27T17:29:01.784Z,85.10
2022-12-27T17:31:34.266Z,85.24
2022-12-27T17:34:07.132Z,85.07
2022-12-27T17:36:59.551Z,85.49
2022-12-27T17:39:48.407Z,85.58
2022-12-27T17:42:55.629Z,85.16
2022-12-27T17:45:31.180Z,85.65
2022-12-27T17:48:21.992Z,85.04
2022-12-27T17:50:53.016Z,84.98
2022-12-27T17:53:42.075Z,85.49
2022-12-27T17:56:37.557Z,85.23
2022-12-27T17:59:27.108Z,85.37
2022-12-27T18:01:59.653Z,84.72
2022-12-27T18:04:40.698Z,85.25
2022-12-27T18:07:11.705Z,84.86
2022-12-27T18:09:50.485Z,85.55
2022-12-27T18:12:22.569Z,85.04
2022-12-27T18:15:04.531Z,85.14
2022-12-27T18:17:40.931Z,84.93
2022-12-27T18:20:34.311Z,84.71
2022-12-27T18:23:06.666Z,85.18
2022-12-27T18:25:41.560Z,85.29
2022-12-27T18:28:16.906Z,85.61
2022-12-27T18:30:58.437Z,85.48
2022-12-27T18:33:36.992Z,85.23
2022-12-27T18:36:07.881Z,85.76
2022-12-27T18:38:39.505Z,85.46
2022-12-27T18:41:14.579Z,86.08
2022-12-27T18:43:49.156Z,86.65
2022-12-27T18:46:32.692Z,86.11
2022-12-27T18:49:02.293Z,86.22
2022-12-27T18:51:37.118Z,86.17
2022-12-27T18:54:24.152Z,86.26
2022-12-27T18:56:54.042Z,86.11
2022-12-27T18:59:27.500Z,86.11
2022-12-27T19:02:02.333Z,86.36
2022-12-27T19:04:33.298Z,86.58
2022-12-27T19:07:11.083Z,86.31
2022-12-27T19:09:42.955Z,85.26
2022-12-27T19:12:24.448Z,85.59
2022-12-27T19:14:54.302Z,85.04
2022-12-27T19:17:26.226Z,85.22
2022-12-27T19:19:58.710Z,84.82
2022-12-27T19:22:53.159Z,84.76
2022-12-27T19:25:31.030Z,84.54
2022-12-27T19:28:11.847Z,84.29
2022-12-27T19:30:43.498Z,84.88
2022-12-27T19:33:29.895Z,84.42
2022-12-27T19:35:59.277Z,83.75
2022-12-27T19:38:29.984Z,84.10
2022-12-27T19:41:04.329Z,83.56
2022-12-27T19:43:45.098Z,83.52
2022-12-27T19:46:15.359Z,83.67
2022-12-27T19:48:46.224Z,83.13
2022-12-27T19:51:20.305Z,83.28
2022-12-27T19:53:57.661Z,83.34
2022-12-27T19:56:23.682Z,82.97
2022-12-27T19:58:55.081Z,83.43
2022-12-27T20:01:24.592Z,83.16
2022-12-27T20:03:54.089Z,83.13
2022-12-27T20:06:28.143Z,83.17
2022-12-27T20:08:55.849Z,83.21
2022-12-27T20:11:27.013Z,83.22
2022-12-27T20:13:56.423Z,82.69
2022-12-27T20:16:25.950Z,82.60
2022-12-27T20:18:55.246Z,83.36
2022-12-27T20:21:24.602Z,82.77
2022-12-27T20:23:53.958Z,82.08
2022-12-27T20:26:25.473Z,82.37
2022-12-27T20:28:55.039Z,82.38
2022-12-27T20:31:24.324Z,81.93
2022-12-27T20:33:55.642Z,82.42
2022-12-27T20:36:25.360Z,81.96
2022-12-27T20:38:54.639Z,82.10
2022-12-27T20:41:24.355Z,82.35
2022-12-27T20:43:58.197Z,82.38
2022-12-27T20:46:27.849Z,81.91
2022-12-27T20:48:58.017Z,82.19
2022-12-27T20:51:31.059Z,82.04
2022-12-27T20:54:02.005Z,82.46
2022-12-27T20:56:31.866Z,82.07
2022-12-27T20:59:04.371Z,82.75
2022-12-27T21:01:33.075Z,82.88
2022-12-27T21:04:02.417Z,82.24
2022-12-27T21:06:31.720Z,82.44
2022-12-27T21:09:01.020Z,82.23
2022-12-27T21:11:32.424Z,82.75
2022-12-27T21:14:03.389Z,82.46
2022-12-27T21:16:35.043Z,82.59
2022-12-27T21:19:05.311Z,82.61
2022-12-27T21:21:36.759Z,83.14
2022-12-27T21:24:08.208Z,82.99
2022-12-27T21:26:38.785Z,82.46
2022-12-27T21:29:09.562Z,82.67
2022-12-27T21:31:38.881Z,83.01
2022-12-27T21:34:08.455Z,82.78
2022-12-27T21:36:38.525Z,83.07
2022-12-27T21:39:08.937Z,82.63
2022-12-27T21:41:40.307Z,83.54
2022-12-27T21:44:09.958Z,82.97
2022-12-27T21:46:41.903Z,83.20
2022-12-27T21:49:13.501Z,82.79
2022-12-27T21:51:43.949Z,83.33
2022-12-27T21:54:14.038Z,83.38
2022-12-27T21:56:43.367Z,83.39
2022-12-27T21:59:12.753Z,83.56
2022-12-27T22:01:50.339Z,83.59
2022-12-27T22:04:15.013Z,83.52
2022-12-27T22:06:47.583Z,83.69
2022-12-27T22:09:16.005Z,83.64
2022-12-27T22:11:45.288Z,84.08
2022-12-27T22:14:14.742Z,83.95
2022-12-27T22:16:44.559Z,83.91
2022-12-27T22:19:14.284Z,84.22
2022-12-27T22:21:43.923Z,84.23
2022-12-27T22:24:15.913Z,83.79
2022-12-27T22:26:45.556Z,83.85
2022-12-27T22:29:14.881Z,84.28
2022-12-27T22:31:45.146Z,84.65
2022-12-27T22:34:14.662Z,85.22
2022-12-27T22:36:43.945Z,86.47
2022-12-27T22:39:15.293Z,86.80
2022-12-27T22:41:46.459Z,87.54
2022-12-27T22:44:16.539Z,88.46
2022-12-27T22:49:17.185Z,88.78
2022-12-27T22:51:46.839Z,89.50
2022-12-27T22:54:16.072Z,89.11
2022-12-27T22:56:45.939Z,89.25
2022-12-27T22:59:16.957Z,89.16
2022-12-27T23:01:46.961Z,89.59
2022-12-27T23:04:16.366Z,88.75
2022-12-27T23:06:45.622Z,88.56
2022-12-27T23:09:14.965Z,88.42
2022-12-27T23:11:44.199Z,88.20
2022-12-27T23:14:16.144Z,87.64
2022-12-27T23:16:47.890Z,87.14
2022-12-27T23:19:20.401Z,88.25
2022-12-27T23:21:49.166Z,88.99
2022-12-27T23:24:18.462Z,89.24
2022-12-27T23:26:47.945Z,89.78
2022-12-27T23:29:17.503Z,90.07
2022-12-27T23:31:54.342Z,90.06
2022-12-27T23:34:22.513Z,89.75
2022-12-27T23:36:49.114Z,90.22
2022-12-27T23:39:18.337Z,89.67
2022-12-27T23:41:47.815Z,89.88
2022-12-27T23:44:32.921Z,89.79
2022-12-27T23:46:48.178Z,89.44
2022-12-27T23:49:17.608Z,89.46
2022-12-27T23:51:47.472Z,89.73
2022-12-27T23:54:16.688Z,89.94
2022-12-27T23:56:45.927Z,89.76
2022-12-27T23:59:16.861Z,89.63
